PROFILE

 METAR AND TAF INFORMATION
ADDS - METARS form results

(0440 UTC 26 January 2021)
http://aviationweather.gov/metar/data/
 
LOWS 260420Z AUTO 30008KT 9999 FEW003 BKN020 M01/M02 Q1013
LOWS 260350Z AUTO 30006KT 2800 SN FEW003 BKN007 M01/M01 Q1013
TAF AMD LOWS 260412Z 2604/2624 29006KT 8000 -SN FEW015 BKN030 TX00/2622Z TNM01/2604Z TEMPO 2604/2605 1200 SN BKN002 TEMPO 2605/2609 NSW FEW020 BKN040 BECMG 2607/2609 28009KT TEMPO 2609/2624 2500 SN BKN013 TEMPO 2612/2621 29015G30KT 

 AIRPORT MAP

 RUNWAY INFORMATION
Runway 16 Runway length 9022 ft Runway width 148 ft
Runway elevation 1411 ft Runway displaced threshold 656 ft Runway heading 157
Runway 34 Runway length 9022 ft Runway width 148 ft
Runway elevation 1411 ft Runway displaced threshold 787 ft Runway heading 337

 AIRPORT FREQUENCIES
Type APP Name APP Frequency 123.725 MHZ
Type ATIS Name ATIS Frequency 125.725 MHZ
Type GND Name GND Frequency 121.75 MHZ
Type TWR Name TWR Frequency 118.1 MHZ

 AIRPORT NEAR NAVIGATION AIDS
Type VOR-DME Name Salzburg Frequency 113800 KHZ
Type NDB Name Salzburg Frequency 382 KHZ
Type NDB Name Salzburg Frequency 410 KHZ
Type NDB Name Salzburg Frequency 356 KHZ